createdAt,value
2018-12-05T00:01:16.135Z,99325.38
2018-12-05T00:03:42.249Z,99327.10
2018-12-05T00:06:08.540Z,99322.40
2018-12-05T00:08:34.683Z,99324.53
2018-12-05T00:11:00.810Z,99318.96
2018-12-05T00:13:26.931Z,99322.40
2018-12-05T00:15:53.073Z,99320.23
2018-12-05T00:18:19.250Z,99327.20
2018-12-05T00:20:45.376Z,99326.41
2018-12-05T00:23:11.553Z,99326.78
2018-12-05T00:25:37.666Z,99330.76
2018-12-05T00:28:03.815Z,99329.04
2018-12-05T00:30:29.937Z,99328.16
2018-12-05T00:32:56.069Z,99332.95
2018-12-05T00:35:22.187Z,99338.61
2018-12-05T00:37:48.328Z,99342.97
2018-12-05T00:40:14.475Z,99344.23
2018-12-05T00:42:40.612Z,99344.23
2018-12-05T00:45:06.884Z,99344.69
2018-12-05T00:47:33.146Z,99344.69
2018-12-05T00:49:59.283Z,99346.02
2018-12-05T00:52:25.414Z,99356.45
2018-12-05T00:54:51.579Z,99355.55
2018-12-05T00:57:17.715Z,99364.27
2018-12-05T00:59:43.867Z,99369.03
2018-12-05T01:02:10.050Z,99368.69
2018-12-05T01:04:36.185Z,99378.61
2018-12-05T01:07:02.542Z,99378.67
2018-12-05T01:09:28.701Z,99379.47
2018-12-05T01:11:54.838Z,99373.88
2018-12-05T01:14:20.993Z,99383.02
2018-12-05T01:16:47.111Z,99381.69
2018-12-05T01:19:13.240Z,99389.60
2018-12-05T01:21:39.374Z,99383.47
2018-12-05T01:24:05.507Z,99377.02
2018-12-05T01:26:31.629Z,99375.30
2018-12-05T01:28:57.765Z,99372.72
2018-12-05T01:31:23.903Z,99368.42
2018-12-05T01:33:50.052Z,99364.16
2018-12-05T01:36:16.186Z,99366.30
2018-12-05T01:38:42.323Z,99368.52
2018-12-05T01:41:08.442Z,99379.39
2018-12-05T01:43:40.613Z,99370.29
2018-12-05T01:46:06.728Z,99370.80
2018-12-05T01:48:32.853Z,99380.88
2018-12-05T01:50:58.986Z,99379.56
2018-12-05T01:53:25.182Z,99380.02
2018-12-05T01:55:51.305Z,99385.67
2018-12-05T01:58:17.455Z,99378.36
2018-12-05T02:00:43.596Z,99389.66
2018-12-05T02:03:09.714Z,99400.51
2018-12-05T02:05:35.855Z,99405.23
2018-12-05T02:08:01.969Z,99399.20
2018-12-05T02:10:28.131Z,99399.20
2018-12-05T02:12:54.264Z,99407.08
2018-12-05T02:15:20.380Z,99412.34
2018-12-05T02:17:46.517Z,99414.89
2018-12-05T02:20:12.662Z,99417.20
2018-12-05T02:22:38.788Z,99419.81
2018-12-05T02:25:05.171Z,99418.09
2018-12-05T02:27:31.302Z,99421.20
2018-12-05T02:29:57.577Z,99425.14
2018-12-05T02:32:23.699Z,99430.70
2018-12-05T02:34:49.841Z,99434.70
2018-12-05T02:37:15.963Z,99436.00
2018-12-05T02:39:42.108Z,99425.19
2018-12-05T02:42:08.250Z,99437.75
2018-12-05T02:44:34.375Z,99433.48
2018-12-05T02:47:00.488Z,99426.61
2018-12-05T02:49:26.811Z,99426.16
2018-12-05T02:51:52.929Z,99421.04
2018-12-05T02:54:19.071Z,99424.09
2018-12-05T02:56:45.244Z,99431.04
2018-12-05T02:59:11.351Z,99431.07
2018-12-05T03:01:37.496Z,99439.75
2018-12-05T03:04:03.648Z,99443.66
2018-12-05T03:06:29.779Z,99445.40
2018-12-05T03:08:55.893Z,99448.00
2018-12-05T03:11:22.016Z,99463.19
2018-12-05T03:13:48.137Z,99463.69
2018-12-05T03:16:14.276Z,99464.99
2018-12-05T03:18:40.403Z,99466.77
2018-12-05T03:21:06.559Z,99470.64
2018-12-05T03:23:32.664Z,99466.41
2018-12-05T03:25:58.932Z,99475.97
2018-12-05T03:28:25.113Z,99473.41
2018-12-05T03:30:51.319Z,99476.44
2018-12-05T03:33:17.436Z,99483.39
2018-12-05T03:35:43.583Z,99490.30
2018-12-05T03:38:09.716Z,99498.52
2018-12-05T03:40:35.842Z,99502.44
2018-12-05T03:43:01.992Z,99511.97
2018-12-05T03:45:31.611Z,99511.47
2018-12-05T03:47:58.107Z,99521.89
2018-12-05T03:50:24.358Z,99519.78
2018-12-05T03:52:50.488Z,99527.55
2018-12-05T03:55:16.619Z,99525.88
2018-12-05T03:57:42.746Z,99536.30
2018-12-05T04:00:08.931Z,99532.39
2018-12-05T04:02:35.175Z,99537.66
2018-12-05T04:05:01.358Z,99542.03
2018-12-05T04:07:27.616Z,99538.98
2018-12-05T04:09:53.888Z,99538.98
2018-12-05T04:12:20.038Z,99550.73
2018-12-05T04:14:46.151Z,99544.27
2018-12-05T04:17:12.322Z,99548.62
2018-12-05T04:19:38.583Z,99544.77
2018-12-05T04:22:04.851Z,99550.36
2018-12-05T04:24:30.976Z,99547.03
2018-12-05T04:26:57.121Z,99543.51
2018-12-05T04:29:23.243Z,99558.33
2018-12-05T04:31:49.362Z,99547.48
2018-12-05T04:34:15.483Z,99566.16
2018-12-05T04:36:41.623Z,99557.91
2018-12-05T04:39:07.879Z,99570.55
2018-12-05T04:41:34.023Z,99571.42
2018-12-05T04:44:01.989Z,99574.84
2018-12-05T04:46:28.305Z,99583.56
2018-12-05T04:48:54.421Z,99595.29
2018-12-05T04:51:20.590Z,99597.89
2018-12-05T04:53:46.723Z,99604.86
2018-12-05T04:56:12.854Z,99605.28
2018-12-05T04:58:39.002Z,99606.59
2018-12-05T05:01:05.139Z,99600.52
2018-12-05T05:03:31.274Z,99610.49
2018-12-05T05:05:57.375Z,99601.38
2018-12-05T05:08:23.515Z,99607.91
2018-12-05T05:10:49.646Z,99604.05
2018-12-05T05:13:15.779Z,99607.09
2018-12-05T05:15:41.905Z,99620.49
2018-12-05T05:18:08.059Z,99621.42
2018-12-05T05:20:34.190Z,99625.77
2018-12-05T05:23:00.319Z,99625.77
2018-12-05T05:25:26.479Z,99619.33
2018-12-05T05:27:52.627Z,99627.14
2018-12-05T05:30:18.747Z,99643.19
2018-12-05T05:32:46.931Z,99641.05
2018-12-05T05:35:13.052Z,99646.25
2018-12-05T05:37:39.232Z,99648.48
2018-12-05T05:40:05.475Z,99652.77
2018-12-05T05:42:31.587Z,99641.98
2018-12-05T05:44:57.720Z,99647.61
2018-12-05T05:47:23.852Z,99643.70
2018-12-05T05:49:49.987Z,99645.44
2018-12-05T05:52:16.103Z,99661.88
2018-12-05T05:54:42.214Z,99661.00
2018-12-05T05:57:08.337Z,99671.47
2018-12-05T05:59:34.475Z,99666.28
2018-12-05T06:02:00.621Z,99667.95
2018-12-05T06:04:26.731Z,99679.21
2018-12-05T06:06:52.847Z,99658.67
2018-12-05T06:09:18.978Z,99680.04
2018-12-05T06:11:45.095Z,99682.64
2018-12-05T06:14:11.237Z,99683.06
2018-12-05T06:16:37.376Z,99690.88
2018-12-05T06:19:05.289Z,99678.48
2018-12-05T06:21:31.711Z,99699.13
2018-12-05T06:23:57.868Z,99706.08
2018-12-05T06:26:23.982Z,99702.17
2018-12-05T06:28:50.106Z,99711.27
2018-12-05T06:31:16.255Z,99709.91
2018-12-05T06:33:42.380Z,99713.80
2018-12-05T06:36:09.411Z,99715.48
2018-12-05T06:38:35.544Z,99719.37
2018-12-05T06:41:01.690Z,99728.05
2018-12-05T06:43:27.827Z,99724.15
2018-12-05T06:45:53.939Z,99730.22
2018-12-05T06:48:20.099Z,99731.05
2018-12-05T06:50:46.231Z,99734.50
2018-12-05T06:53:12.350Z,99733.22
2018-12-05T06:55:39.205Z,99740.59
2018-12-05T06:58:05.632Z,99745.34
2018-12-05T07:00:31.796Z,99742.75
2018-12-05T07:02:57.927Z,99747.48
2018-12-05T07:05:24.533Z,99751.79
2018-12-05T07:07:50.682Z,99749.98
2018-12-05T07:10:16.830Z,99748.14
2018-12-05T07:12:42.965Z,99751.95
2018-12-05T07:15:09.102Z,99752.75
2018-12-05T07:17:35.244Z,99753.11
2018-12-05T07:20:01.733Z,99749.56
2018-12-05T07:22:27.873Z,99747.73
2018-12-05T07:24:53.999Z,99757.62
2018-12-05T07:27:20.141Z,99760.12
2018-12-05T07:29:46.284Z,99756.58
2018-12-05T07:32:12.435Z,99751.30
2018-12-05T07:34:38.559Z,99757.81
2018-12-05T07:37:04.695Z,99750.84
2018-12-05T07:39:30.824Z,99756.06
2018-12-05T07:41:56.967Z,99760.84
2018-12-05T07:44:23.115Z,99764.75
2018-12-05T07:46:49.252Z,99773.43
2018-12-05T07:49:15.400Z,99772.05
2018-12-05T07:51:41.573Z,99780.76
2018-12-05T07:54:07.707Z,99782.08
2018-12-05T07:56:33.838Z,99786.86
2018-12-05T07:58:59.961Z,99763.67
2018-12-05T08:01:26.102Z,99793.86
2018-12-05T08:03:52.242Z,99792.52
2018-12-05T08:06:18.404Z,99801.20
2018-12-05T08:08:44.548Z,99815.08
2018-12-05T08:11:10.710Z,99824.59
2018-12-05T08:13:36.866Z,99819.38
2018-12-05T08:16:03.137Z,99806.34
2018-12-05T08:18:29.283Z,99827.20
2018-12-05T08:20:55.416Z,99832.41
2018-12-05T08:23:21.569Z,99835.09
2018-12-05T08:25:47.740Z,99843.75
2018-12-05T08:28:13.879Z,99843.77
2018-12-05T08:30:40.031Z,99845.94
2018-12-05T08:33:06.172Z,99838.55
2018-12-05T08:35:32.371Z,99852.03
2018-12-05T08:37:58.567Z,99845.94
2018-12-05T08:40:24.711Z,99856.80
2018-12-05T08:42:50.863Z,99865.05
2018-12-05T08:45:17.132Z,99862.45
2018-12-05T08:47:43.289Z,99877.59
2018-12-05T08:50:09.459Z,99868.47
2018-12-05T08:52:35.609Z,99868.03
2018-12-05T08:55:01.764Z,99878.91
2018-12-05T08:57:27.929Z,99884.98
2018-12-05T08:59:54.075Z,99874.98
2018-12-05T09:02:20.231Z,99888.89
2018-12-05T09:04:46.371Z,99884.53
2018-12-05T09:07:12.527Z,99891.94
2018-12-05T09:09:38.687Z,99895.84
2018-12-05T09:12:04.839Z,99894.53
2018-12-05T09:14:30.978Z,99890.56
2018-12-05T09:16:57.107Z,99902.30
2018-12-05T09:19:23.255Z,99901.86
2018-12-05T09:21:49.387Z,99900.11
2018-12-05T09:24:15.550Z,99902.73
2018-12-05T09:26:41.674Z,99906.72
2018-12-05T09:29:07.816Z,99907.94
2018-12-05T09:31:33.976Z,99909.26
2018-12-05T09:34:00.137Z,99912.34
2018-12-05T09:36:26.280Z,99914.03
2018-12-05T09:38:52.419Z,99919.23
2018-12-05T09:41:18.558Z,99917.48
2018-12-05T09:43:44.723Z,99910.97
2018-12-05T09:46:10.878Z,99915.71
2018-12-05T09:48:37.039Z,99922.28
2018-12-05T09:51:03.181Z,99922.66
2018-12-05T09:53:29.333Z,99925.25
2018-12-05T09:55:55.486Z,99932.45
2018-12-05T09:58:21.652Z,99929.47
2018-12-05T10:00:47.789Z,99938.95
2018-12-05T10:03:13.908Z,99945.86
2018-12-05T10:05:40.060Z,99939.87
2018-12-05T10:08:06.203Z,99947.23
2018-12-05T10:10:32.353Z,99941.56
2018-12-05T10:12:58.508Z,99943.73
2018-12-05T10:15:24.651Z,99941.95
2018-12-05T10:17:50.794Z,99949.78
2018-12-05T10:20:16.956Z,99954.98
2018-12-05T10:22:43.069Z,99960.69
2018-12-05T10:25:09.225Z,99958.91
2018-12-05T10:27:35.381Z,99965.84
2018-12-05T10:30:01.779Z,99960.70
2018-12-05T10:32:27.959Z,99959.33
2018-12-05T10:34:54.112Z,99968.95
2018-12-05T10:37:20.235Z,99963.35
2018-12-05T10:39:46.378Z,99966.47
2018-12-05T10:42:12.787Z,99967.84
2018-12-05T10:44:38.927Z,99978.30
2018-12-05T10:47:05.076Z,99976.53
2018-12-05T10:49:31.275Z,99978.72
2018-12-05T10:51:57.455Z,99977.98
2018-12-05T10:54:23.652Z,99987.22
2018-12-05T10:56:49.816Z,99987.23
2018-12-05T10:59:15.972Z,99994.72
2018-12-05T11:01:48.152Z,99988.70
2018-12-05T11:04:17.767Z,99995.66
2018-12-05T11:06:49.907Z,99996.58
2018-12-05T11:12:25.754Z,100001.50
2018-12-05T11:14:57.880Z,100000.80
2018-12-05T11:17:30.353Z,100003.39
2018-12-05T11:19:58.563Z,100009.54
2018-12-05T11:22:30.751Z,100013.52
2018-12-05T11:25:02.707Z,100011.40
2018-12-05T11:27:28.878Z,100013.67
2018-12-05T11:29:55.052Z,100013.73
2018-12-05T11:32:21.196Z,100009.48
2018-12-05T11:34:47.328Z,100013.89
2018-12-05T11:37:13.489Z,100015.19
2018-12-05T11:39:39.987Z,100015.25
2018-12-05T11:42:06.174Z,100022.30
2018-12-05T11:44:32.309Z,100030.64
2018-12-05T11:46:58.452Z,100027.71
2018-12-05T11:49:24.592Z,100034.32
2018-12-05T11:51:50.754Z,100027.99
2018-12-05T11:54:16.939Z,100031.95
2018-12-05T11:56:43.078Z,100033.72
2018-12-05T11:59:09.226Z,100041.97
2018-12-05T12:01:35.388Z,100040.23
2018-12-05T12:04:01.539Z,100038.55
2018-12-05T12:06:27.707Z,100040.33
2018-12-05T12:08:53.871Z,100040.77
2018-12-05T12:11:20.776Z,100040.41
2018-12-05T12:13:46.927Z,100045.27
2018-12-05T12:16:13.526Z,100047.13
2018-12-05T12:18:39.691Z,100057.14
2018-12-05T12:21:05.804Z,100055.52
2018-12-05T12:23:31.931Z,100051.70
2018-12-05T12:25:58.084Z,100050.00
2018-12-05T12:28:24.218Z,100050.87
2018-12-05T12:30:50.332Z,100057.87
2018-12-05T12:33:16.497Z,100059.22
2018-12-05T12:35:42.640Z,100061.85
2018-12-05T12:38:08.775Z,100066.19
2018-12-05T12:40:34.976Z,100063.62
2018-12-05T12:43:01.136Z,100066.19
2018-12-05T12:45:27.341Z,100073.55
2018-12-05T12:47:53.540Z,100063.55
2018-12-05T12:50:19.723Z,100070.87
2018-12-05T12:52:45.857Z,100071.34
2018-12-05T12:55:12.015Z,100070.98
2018-12-05T12:57:38.161Z,100068.45
2018-12-05T13:00:06.486Z,100070.69
2018-12-05T13:02:32.625Z,100078.08
2018-12-05T13:04:58.768Z,100087.64
2018-12-05T13:07:24.931Z,100078.58
2018-12-05T13:09:51.103Z,100082.02
2018-12-05T13:12:19.266Z,100090.64
2018-12-05T13:14:45.405Z,100091.08
2018-12-05T13:17:11.522Z,100092.41
2018-12-05T13:19:37.649Z,100091.11
2018-12-05T13:22:03.784Z,100089.87
2018-12-05T13:24:29.936Z,100095.53
2018-12-05T13:26:56.071Z,100094.72
2018-12-05T13:29:22.205Z,100097.31
2018-12-05T13:31:48.316Z,100098.21
2018-12-05T13:34:14.783Z,100093.48
2018-12-05T13:36:40.952Z,100094.37
2018-12-05T13:39:07.212Z,100092.64
2018-12-05T13:41:33.375Z,100090.06
2018-12-05T13:43:59.508Z,100084.93
2018-12-05T13:46:29.858Z,100084.09
2018-12-05T13:48:53.809Z,100084.57
2018-12-05T13:51:19.947Z,100087.22
2018-12-05T13:53:46.108Z,100086.80
2018-12-05T13:56:12.298Z,100089.41
2018-12-05T13:58:38.444Z,100098.97
2018-12-05T14:01:04.575Z,100103.34
2018-12-05T14:03:30.723Z,100106.84
2018-12-05T14:05:56.861Z,100109.88
2018-12-05T14:08:23.112Z,100098.66
2018-12-05T14:10:49.247Z,100095.20
2018-12-05T14:13:15.396Z,100098.68
2018-12-05T14:15:41.541Z,100103.45
2018-12-05T14:18:07.679Z,100106.09
2018-12-05T14:20:33.847Z,100100.06
2018-12-05T14:22:59.991Z,100107.45
2018-12-05T14:25:26.148Z,100106.17
2018-12-05T14:27:52.301Z,100103.96
2018-12-05T14:30:18.436Z,100103.55
2018-12-05T14:32:44.601Z,100113.94
2018-12-05T14:35:10.746Z,100111.80
2018-12-05T14:37:36.916Z,100103.61
2018-12-05T14:40:04.397Z,100103.66
2018-12-05T14:42:30.556Z,100103.23
2018-12-05T14:44:56.697Z,100107.11
2018-12-05T14:47:22.856Z,100105.81
2018-12-05T14:49:49.003Z,100111.42
2018-12-05T14:52:15.140Z,100114.05
2018-12-05T14:54:41.267Z,100112.79
2018-12-05T14:57:07.464Z,100114.95
2018-12-05T14:59:33.625Z,100111.95
2018-12-05T15:01:59.797Z,99966.24
2018-12-05T15:04:25.931Z,100112.83
2018-12-05T15:06:52.099Z,100110.21
2018-12-05T15:09:18.268Z,100108.92
2018-12-05T15:11:44.490Z,100105.47
2018-12-05T15:14:10.646Z,100114.13
2018-12-05T15:16:36.816Z,100113.23
2018-12-05T15:19:03.200Z,100115.82
2018-12-05T15:21:29.384Z,100118.86
2018-12-05T15:23:55.563Z,100117.98
2018-12-05T15:26:21.716Z,100116.25
2018-12-05T15:28:47.880Z,100114.09
2018-12-05T15:31:14.027Z,100119.70
2018-12-05T15:33:40.317Z,100111.10
2018-12-05T15:36:06.498Z,100102.88
2018-12-05T15:38:32.672Z,100117.12
2018-12-05T15:40:58.831Z,100108.05
2018-12-05T15:43:25.194Z,100111.95
2018-12-05T15:45:51.366Z,100107.21
2018-12-05T15:48:17.544Z,100112.39
2018-12-05T15:50:43.707Z,100106.78
2018-12-05T15:53:09.909Z,100113.25
2018-12-05T15:55:36.095Z,100114.13
2018-12-05T15:58:02.258Z,100105.91
2018-12-05T16:00:28.420Z,100108.51
2018-12-05T16:02:54.620Z,100105.06
2018-12-05T16:05:21.028Z,100107.64
2018-12-05T16:07:47.539Z,100095.98
2018-12-05T16:10:13.669Z,100099.88
2018-12-05T16:12:39.848Z,100105.50
2018-12-05T16:15:06.386Z,100110.70
2018-12-05T16:17:32.567Z,100107.25
2018-12-05T16:19:58.777Z,100112.42
2018-12-05T16:22:24.907Z,100093.86
2018-12-05T16:24:51.148Z,100097.30
2018-12-05T16:27:17.324Z,100100.34
2018-12-05T16:29:43.477Z,100091.69
2018-12-05T16:32:09.670Z,100099.46
2018-12-05T16:34:35.819Z,100099.06
2018-12-05T16:37:01.948Z,100094.73
2018-12-05T16:39:28.129Z,100093.00
2018-12-05T16:41:54.260Z,100099.47
2018-12-05T16:44:21.326Z,100093.44
2018-12-05T16:46:47.464Z,100093.88
2018-12-05T16:49:13.629Z,100094.31
2018-12-05T16:51:39.779Z,100084.80
2018-12-05T16:54:06.430Z,100087.83
2018-12-05T16:56:32.605Z,100087.84
2018-12-05T16:58:58.796Z,100089.98
2018-12-05T17:01:25.009Z,100081.77
2018-12-05T17:03:51.167Z,100080.87
2018-12-05T17:06:17.361Z,100085.22
2018-12-05T17:08:43.507Z,100080.47
2018-12-05T17:11:09.668Z,100084.37
2018-12-05T17:13:37.872Z,100079.20
2018-12-05T17:16:04.037Z,100086.97
2018-12-05T17:18:30.285Z,100090.44
2018-12-05T17:20:56.437Z,100089.55
2018-12-05T17:23:22.591Z,100080.92
2018-12-05T17:25:48.751Z,100081.36
2018-12-05T17:28:14.876Z,100081.78
2018-12-05T17:30:41.033Z,100076.62
2018-12-05T17:33:07.235Z,100083.09
2018-12-05T17:35:33.393Z,100080.07
2018-12-05T17:37:59.521Z,100089.14
2018-12-05T17:40:25.723Z,100079.23
2018-12-05T17:42:51.898Z,100074.48
2018-12-05T17:45:18.112Z,100079.69
2018-12-05T17:47:44.281Z,100088.74
2018-12-05T17:50:10.494Z,100090.47
2018-12-05T17:52:36.648Z,100089.16
2018-12-05T17:55:03.124Z,100087.87
2018-12-05T17:57:29.306Z,100081.40
2018-12-05T17:59:55.466Z,100077.08
2018-12-05T18:02:21.636Z,100076.21
2018-12-05T18:04:47.784Z,100067.61
2018-12-05T18:07:13.989Z,100070.63
2018-12-05T18:09:40.134Z,100070.19
2018-12-05T18:12:06.370Z,100075.78
2018-12-05T18:14:32.537Z,100065.85
2018-12-05T18:16:58.698Z,100071.05
2018-12-05T18:19:24.871Z,100058.09
2018-12-05T18:21:51.003Z,100061.97
2018-12-05T18:24:17.220Z,100062.41
2018-12-05T18:26:43.367Z,100066.27
2018-12-05T18:29:09.535Z,100061.55
2018-12-05T18:31:35.724Z,100057.68
2018-12-05T18:34:01.888Z,100048.19
2018-12-05T18:36:28.169Z,100048.16
2018-12-05T18:38:54.402Z,100025.33
2018-12-05T18:41:20.633Z,100047.31
2018-12-05T18:43:46.796Z,100039.55
2018-12-05T18:46:12.968Z,100042.56
2018-12-05T18:48:39.170Z,100035.23
2018-12-05T18:51:05.354Z,100041.30
2018-12-05T18:53:31.565Z,100039.11
2018-12-05T18:55:57.740Z,100038.69
2018-12-05T18:58:23.896Z,100044.74
2018-12-05T19:00:50.127Z,100041.70
2018-12-05T19:03:16.865Z,100037.42
2018-12-05T19:05:43.013Z,100034.81
2018-12-05T19:08:09.190Z,100032.23
2018-12-05T19:10:35.411Z,100028.78
2018-12-05T19:13:01.619Z,100027.93
2018-12-05T19:15:27.795Z,100030.08
2018-12-05T19:17:53.959Z,100030.09
2018-12-05T19:20:21.842Z,100034.38
2018-12-05T19:22:48.083Z,100029.64
2018-12-05T19:25:14.244Z,100028.77
2018-12-05T19:27:40.426Z,100031.79
2018-12-05T19:30:07.040Z,100037.41
2018-12-05T19:32:33.195Z,100032.23
2018-12-05T19:34:59.364Z,100024.88
2018-12-05T19:37:25.571Z,100026.63
2018-12-05T19:39:51.754Z,100030.48
2018-12-05T19:42:17.947Z,100033.09
2018-12-05T19:44:44.122Z,100028.33
2018-12-05T19:47:10.295Z,100027.03
2018-12-05T19:49:36.526Z,100024.00
2018-12-05T19:52:02.844Z,100025.73
2018-12-05T19:54:29.006Z,100033.49
2018-12-05T19:56:55.260Z,100027.89
2018-12-05T19:59:21.431Z,100039.95
2018-12-05T20:01:47.614Z,100029.61
2018-12-05T20:04:13.877Z,100023.13
2018-12-05T20:06:40.056Z,100019.27
2018-12-05T20:09:06.710Z,100023.15
2018-12-05T20:11:32.865Z,100017.53
2018-12-05T20:13:59.056Z,100027.03
2018-12-05T20:16:25.221Z,100024.00
2018-12-05T20:18:51.389Z,100029.59
2018-12-05T20:21:17.657Z,100030.47
2018-12-05T20:23:43.805Z,100032.60
2018-12-05T20:26:10.048Z,100036.92
2018-12-05T20:28:36.186Z,100036.06
2018-12-05T20:31:02.349Z,100039.49
2018-12-05T20:33:28.499Z,100038.62
2018-12-05T20:35:54.630Z,100033.87
2018-12-05T20:38:20.827Z,100042.47
2018-12-05T20:40:46.985Z,100039.44
2018-12-05T20:43:13.139Z,100041.58
2018-12-05T20:45:39.415Z,100036.38
2018-12-05T20:48:06.474Z,100046.30
2018-12-05T20:50:32.674Z,100048.42
2018-12-05T20:52:58.795Z,100038.48
2018-12-05T20:55:24.931Z,100038.92
2018-12-05T20:57:51.079Z,100038.47
2018-12-05T21:00:17.213Z,100018.18
2018-12-05T21:02:43.355Z,100041.05
2018-12-05T21:05:09.515Z,100039.30
2018-12-05T21:07:35.664Z,100044.00
2018-12-05T21:10:01.822Z,100041.42
2018-12-05T21:12:27.959Z,100041.84
2018-12-05T21:14:55.015Z,100044.41
2018-12-05T21:17:21.177Z,100039.22
2018-12-05T21:19:47.311Z,100040.12
2018-12-05T21:22:13.439Z,100040.94
2018-12-05T21:24:39.732Z,100037.52
2018-12-05T21:27:06.035Z,100039.26
2018-12-05T21:29:32.466Z,100036.67
2018-12-05T21:31:58.620Z,100036.23
2018-12-05T21:34:24.907Z,100037.10
2018-12-05T21:36:51.103Z,100034.11
2018-12-05T21:39:17.316Z,100025.10
2018-12-05T21:41:43.635Z,100035.02
2018-12-05T21:44:09.780Z,100038.52
2018-12-05T21:46:36.932Z,100027.39
2018-12-05T21:49:03.188Z,100029.61
2018-12-05T21:51:29.331Z,100030.91
2018-12-05T21:53:56.101Z,100033.52
2018-12-05T21:56:22.682Z,100030.92
2018-12-05T21:58:48.872Z,100030.07
2018-12-05T22:01:15.048Z,100026.61
2018-12-05T22:03:41.213Z,100030.52
2018-12-05T22:06:07.351Z,100029.19
2018-12-05T22:08:33.523Z,100034.38
2018-12-05T22:10:59.663Z,100027.47
2018-12-05T22:13:25.810Z,100021.80
2018-12-05T22:15:51.931Z,100023.88
2018-12-05T22:18:21.566Z,100024.28
2018-12-05T22:20:47.698Z,100026.00
2018-12-05T22:23:15.624Z,100025.97
2018-12-05T22:25:41.763Z,100030.23
2018-12-05T22:28:07.928Z,100036.23
2018-12-05T22:30:34.078Z,100040.10
2018-12-05T22:33:00.220Z,100044.44
2018-12-05T22:35:26.360Z,100044.01
2018-12-05T22:37:52.499Z,100045.70
2018-12-05T22:40:18.627Z,100044.41
2018-12-05T22:42:44.804Z,100046.97
2018-12-05T22:45:11.273Z,100047.83
2018-12-05T22:47:37.468Z,100056.86
2018-12-05T22:50:04.645Z,100057.75
2018-12-05T22:52:30.801Z,100049.95
2018-12-05T22:54:56.935Z,100062.90
2018-12-05T22:57:23.071Z,100058.18
2018-12-05T22:59:49.229Z,100064.25
2018-12-05T23:02:15.492Z,100063.39
2018-12-05T23:04:41.655Z,100068.14
2018-12-05T23:07:07.787Z,100070.73
2018-12-05T23:09:33.943Z,100070.72
2018-12-05T23:12:00.098Z,100084.56
2018-12-05T23:14:26.265Z,100071.58
2018-12-05T23:16:52.411Z,100072.05
2018-12-05T23:19:18.563Z,100082.41
2018-12-05T23:21:44.706Z,100082.38
2018-12-05T23:24:10.847Z,100084.54
2018-12-05T23:26:37.012Z,100089.29
2018-12-05T23:29:03.181Z,100089.30
2018-12-05T23:31:29.321Z,100089.30
2018-12-05T23:33:55.482Z,100087.17
2018-12-05T23:36:21.631Z,100085.05
2018-12-05T23:38:47.777Z,100087.24
2018-12-05T23:41:13.913Z,100088.92
2018-12-05T23:43:40.057Z,100093.20
2018-12-05T23:46:06.234Z,100093.17
2018-12-05T23:48:32.423Z,100093.48
2018-12-05T23:50:58.559Z,100099.09
2018-12-05T23:53:24.718Z,100104.30
2018-12-05T23:55:50.863Z,100099.12
2018-12-05T23:58:16.992Z,100104.31
